Time;durP1;ratioP1;P1;durP2;ratioP2;P2;SDS_P1;SDS_P2;PMS_P1;PMS_P2;Temp;Humidity;BMP_temperature;BMP_pressure;BME280_temperature;BME280_humidity;BME280_pressure;Samples;Min_cycle;Max_cycle;Signal;HPM_P1;HPM_P2
2024/04/06 00:01:40;;;;;;;1999.90;999.90;;;16.50;92.00;;;;;;6094939;23;20221;-71
2024/04/06 00:04:07;;;;;;;1999.90;999.90;;;16.60;92.00;;;;;;6096154;23;20246;-71
2024/04/06 00:06:32;;;;;;;1999.90;999.90;;;16.50;92.00;;;;;;6095179;23;20188;-71
2024/04/06 00:08:58;;;;;;;1999.90;999.90;;;16.50;92.00;;;;;;6094581;23;20603;-71
2024/04/06 00:11:24;;;;;;;1999.90;999.90;;;16.60;92.10;;;;;;6094333;23;20198;-71
2024/04/06 00:13:51;;;;;;;1999.90;999.90;;;16.60;92.10;;;;;;6096026;23;20186;-71
2024/04/06 00:16:17;;;;;;;1999.90;999.90;;;16.60;92.20;;;;;;6095086;23;20167;-71
2024/04/06 00:18:43;;;;;;;1999.90;999.90;;;16.50;92.20;;;;;;6096316;23;20154;-71
2024/04/06 00:21:08;;;;;;;1999.90;999.90;;;16.50;92.40;;;;;;6094614;23;20221;-71
2024/04/06 00:23:34;;;;;;;1999.90;999.90;;;16.40;92.40;;;;;;6094746;23;20641;-71
2024/04/06 00:25:59;;;;;;;1999.90;999.90;;;16.40;92.50;;;;;;6095051;23;20158;-71
2024/04/06 00:28:25;;;;;;;1999.90;999.90;;;16.40;92.50;;;;;;6095861;23;20235;-71
2024/04/06 00:30:51;;;;;;;1999.90;999.90;;;16.40;92.50;;;;;;6094207;23;20564;-71
2024/04/06 00:33:17;;;;;;;1999.90;999.90;;;16.40;92.40;;;;;;6096012;23;20165;-71
2024/04/06 00:35:44;;;;;;;1999.90;999.90;;;16.50;92.40;;;;;;6095641;23;20178;-71
2024/04/06 00:38:09;;;;;;;1999.90;999.90;;;16.50;92.40;;;;;;6095466;23;20479;-71
2024/04/06 00:40:35;;;;;;;1999.90;999.90;;;16.50;92.30;;;;;;6096156;23;20174;-71
2024/04/06 00:43:01;;;;;;;1999.90;999.90;;;16.50;92.30;;;;;;6095828;23;20177;-72
2024/04/06 00:45:27;;;;;;;1999.90;999.90;;;16.50;92.20;;;;;;6094101;23;20503;-72
2024/04/06 00:47:52;;;;;;;1999.90;999.90;;;16.50;92.20;;;;;;6093014;23;20156;-72
2024/04/06 00:50:19;;;;;;;1999.90;999.90;;;16.50;92.20;;;;;;6095617;23;20179;-72
2024/04/06 00:52:45;;;;;;;1999.90;999.90;;;16.50;92.20;;;;;;6095853;23;20592;-72
2024/04/06 00:55:11;;;;;;;1999.90;999.90;;;16.50;92.20;;;;;;6095669;23;20162;-72
2024/04/06 00:57:37;;;;;;;1999.90;999.90;;;16.50;92.30;;;;;;6094613;23;20191;-71
2024/04/06 01:00:03;;;;;;;1999.90;999.90;;;16.50;92.20;;;;;;6095585;23;20178;-71
2024/04/06 01:02:29;;;;;;;1999.90;999.90;;;16.50;92.20;;;;;;6096098;23;20489;-72
2024/04/06 01:04:55;;;;;;;1999.90;999.90;;;16.50;92.20;;;;;;6095578;23;20206;-71
2024/04/06 01:07:20;;;;;;;1999.90;999.90;;;16.50;92.10;;;;;;6094815;23;20587;-71
2024/04/06 01:09:46;;;;;;;1999.90;999.90;;;16.50;92.10;;;;;;6097463;23;20642;-72
2024/04/06 01:12:12;;;;;;;1999.90;999.90;;;16.50;92.10;;;;;;6125131;23;20451;-71
2024/04/06 01:14:37;;;;;;;1999.90;999.90;;;16.50;92.00;;;;;;6099015;23;20175;-71
2024/04/06 01:17:03;;;;;;;1999.90;999.90;;;16.50;92.00;;;;;;6123835;23;20154;-72
2024/04/06 01:19:29;;;;;;;1999.90;999.90;;;16.50;91.90;;;;;;6124853;23;20165;-72
2024/04/06 01:21:55;;;;;;;1999.90;999.90;;;16.50;91.90;;;;;;6125060;23;20493;-72
2024/04/06 01:24:27;;;;;;;1999.90;999.90;;;16.50;91.90;;;;;;6124857;23;20228;-71
2024/04/06 01:26:54;;;;;;;1999.90;999.90;;;16.40;91.80;;;;;;6123903;23;20670;-72
2024/04/06 01:29:22;;;;;;;1999.90;999.90;;;16.40;91.80;;;;;;6098586;23;20216;-72
2024/04/06 01:31:47;;;;;;;1999.90;999.90;;;16.30;91.80;;;;;;6124889;23;20177;-72
2024/04/06 01:34:13;;;;;;;1999.90;999.90;;;16.30;91.80;;;;;;6098870;23;20161;-72
2024/04/06 01:36:40;;;;;;;1999.90;999.90;;;16.30;91.80;;;;;;6123559;23;20154;-72
2024/04/06 01:39:07;;;;;;;1999.90;999.90;;;16.20;91.80;;;;;;6125059;23;20220;-72
2024/04/06 01:41:34;;;;;;;1999.90;999.90;;;16.20;91.80;;;;;;6125046;23;20171;-71
2024/04/06 01:44:00;;;;;;;1999.90;999.90;;;16.20;91.80;;;;;;6125262;23;20193;-71
2024/04/06 01:46:26;;;;;;;1999.90;999.90;;;16.20;91.80;;;;;;6123755;23;20158;-71
2024/04/06 01:48:51;;;;;;;1999.90;999.90;;;16.10;91.80;;;;;;6098762;23;20185;-71
2024/04/06 01:51:17;;;;;;;1999.90;999.90;;;16.10;92.20;;;;;;6124774;23;20228;-71
2024/04/06 01:53:42;;;;;;;1999.90;999.90;;;16.00;91.80;;;;;;6098841;23;20165;-71
2024/04/06 01:56:08;;;;;;;1999.90;999.90;;;16.00;91.80;;;;;;6123625;23;20161;-71
2024/04/06 01:58:34;;;;;;;1999.90;999.90;;;16.00;91.80;;;;;;6125636;23;20157;-71
2024/04/06 02:00:59;;;;;;;1999.90;999.90;;;16.00;91.80;;;;;;6126532;23;20504;-71
2024/04/06 02:03:25;;;;;;;1999.90;999.90;;;15.90;91.80;;;;;;6100857;23;20182;-71
2024/04/06 02:05:50;;;;;;;1999.90;999.90;;;15.90;91.80;;;;;;6126565;23;20157;-71
2024/04/06 02:08:16;;;;;;;1999.90;999.90;;;15.80;91.80;;;;;;6125849;23;20165;-71
2024/04/06 02:10:42;;;;;;;1999.90;999.90;;;15.80;91.90;;;;;;6127153;23;20475;-71
2024/04/06 02:13:08;;;;;;;1999.90;999.90;;;15.70;91.80;;;;;;6126778;23;20150;-71
2024/04/06 02:15:35;;;;;;;1999.90;999.90;;;15.70;91.90;;;;;;6100593;23;20211;-70
2024/04/06 02:18:01;;;;;;;1999.90;999.90;;;15.60;91.80;;;;;;6125819;23;20149;-71
2024/04/06 02:20:27;;;;;;;1999.90;999.90;;;15.50;91.90;;;;;;6126621;23;20234;-70
2024/04/06 02:22:52;;;;;;;1999.90;999.90;;;15.40;92.00;;;;;;6126617;23;20624;-70
2024/04/06 02:25:18;;;;;;;1999.90;999.90;;;15.40;92.00;;;;;;6100378;23;20191;-70
2024/04/06 02:27:43;;;;;;;1999.90;999.90;;;15.30;92.00;;;;;;6125657;23;20213;-70
2024/04/06 02:30:10;;;;;;;1999.90;999.90;;;15.20;92.00;;;;;;6126365;23;20177;-70
2024/04/06 02:32:36;;;;;;;1999.90;999.90;;;15.10;92.10;;;;;;6126538;23;20151;-70
2024/04/06 02:35:01;;;;;;;1999.90;999.90;;;15.10;92.20;;;;;;6126360;23;20153;-71
2024/04/06 02:37:27;;;;;;;1999.90;999.90;;;15.00;92.10;;;;;;6125682;23;20156;-70
2024/04/06 02:39:53;;;;;;;1999.90;999.90;;;14.90;92.20;;;;;;6126319;23;20180;-70
2024/04/06 02:42:18;;;;;;;1999.90;999.90;;;14.90;92.20;;;;;;6126623;23;20667;-71
2024/04/06 02:44:44;;;;;;;1999.90;999.90;;;14.80;92.30;;;;;;6126261;23;20270;-71
2024/04/06 02:47:10;;;;;;;1999.90;999.90;;;14.80;92.30;;;;;;6125370;23;20232;-70
2024/04/06 02:49:35;;;;;;;1999.90;999.90;;;14.80;92.20;;;;;;6126273;23;20175;-70
2024/04/06 02:52:01;;;;;;;1999.90;999.90;;;14.90;92.20;;;;;;6126482;23;20183;-71
2024/04/06 02:54:26;;;;;;;1999.90;999.90;;;14.80;92.20;;;;;;6126401;23;20346;-70
2024/04/06 02:56:52;;;;;;;1999.90;999.90;;;14.80;92.20;;;;;;6125221;23;20600;-70
2024/04/06 02:59:18;;;;;;;1999.90;999.90;;;14.80;92.30;;;;;;6126282;23;20156;-70
2024/04/06 03:01:43;;;;;;;1999.90;999.90;;;14.80;92.30;;;;;;6126268;23;20180;-71
2024/04/06 03:04:09;;;;;;;1999.90;999.90;;;14.90;92.30;;;;;;6126154;23;20190;-71
2024/04/06 03:06:34;;;;;;;1999.90;999.90;;;15.00;92.30;;;;;;6125260;23;20154;-71
2024/04/06 03:09:01;;;;;;;1999.90;999.90;;;15.00;92.20;;;;;;6126065;23;20155;-70
2024/04/06 03:11:26;;;;;;;1999.90;999.90;;;15.00;92.10;;;;;;6125652;23;20668;-70
2024/04/06 03:13:53;;;;;;;1999.90;999.90;;;14.90;91.90;;;;;;6126206;23;20172;-70
2024/04/06 03:16:20;;;;;;;1999.90;999.90;;;14.80;91.90;;;;;;6098896;23;20627;-71
2024/04/06 03:18:46;;;;;;;1999.90;999.90;;;14.80;92.00;;;;;;6126185;23;20160;-71
2024/04/06 03:21:12;;;;;;;1999.90;999.90;;;14.80;92.00;;;;;;6126172;23;20674;-70
2024/04/06 03:23:38;;;;;;;1999.90;999.90;;;14.80;92.10;;;;;;6126002;23;20175;-70
2024/04/06 03:26:04;;;;;;;1999.90;999.90;;;14.80;92.20;;;;;;6125055;23;20173;-71
2024/04/06 03:28:29;;;;;;;1999.90;999.90;;;14.80;92.20;;;;;;6126109;23;20152;-71
2024/04/06 03:30:58;;;;;;;1999.90;999.90;;;14.80;92.10;;;;;;6125563;23;20179;-71
2024/04/06 03:33:24;;;;;;;1999.90;999.90;;;14.80;92.10;;;;;;6124258;23;20605;-71
2024/04/06 03:35:50;;;;;;;1999.90;999.90;;;14.80;92.10;;;;;;6125675;23;20261;-70
2024/04/06 03:38:15;;;;;;;1999.90;999.90;;;14.80;92.10;;;;;;6125271;23;20172;-72
2024/04/06 03:40:41;;;;;;;1999.90;999.90;;;14.70;92.00;;;;;;6125893;23;20242;-71
2024/04/06 03:43:07;;;;;;;1999.90;999.90;;;14.70;92.00;;;;;;6100010;23;20159;-70
2024/04/06 03:45:35;;;;;;;1999.90;999.90;;;14.60;91.90;;;;;;6125823;23;20507;-71
2024/04/06 03:48:02;;;;;;;1999.90;999.90;;;14.60;91.90;;;;;;6098736;23;20206;-70
2024/04/06 03:50:28;;;;;;;1999.90;999.90;;;14.50;91.90;;;;;;6099934;23;20186;-70
2024/04/06 03:52:54;;;;;;;1999.90;999.90;;;14.50;91.90;;;;;;6126091;23;20577;-70
2024/04/06 03:55:20;;;;;;;1999.90;999.90;;;14.50;91.90;;;;;;6099613;23;20530;-71
2024/04/06 03:57:47;;;;;;;1999.90;999.90;;;14.50;92.00;;;;;;6124910;23;20226;-70
2024/04/06 04:00:14;;;;;;;1999.90;999.90;;;14.40;92.30;;;;;;6099455;23;20215;-70
2024/04/06 04:02:40;;;;;;;1999.90;999.90;;;14.50;92.00;;;;;;6125717;23;20638;-70
2024/04/06 04:05:08;;;;;;;1999.90;999.90;;;14.40;92.00;;;;;;6125689;23;20175;-70
2024/04/06 04:07:35;;;;;;;1999.90;999.90;;;14.50;92.00;;;;;;6124793;23;20174;-70
2024/04/06 04:10:02;;;;;;;1999.90;999.90;;;14.40;91.90;;;;;;6125494;23;20233;-71
2024/04/06 04:12:28;;;;;;;1999.90;999.90;;;14.40;92.00;;;;;;6099701;23;20612;-70
2024/04/06 04:14:54;;;;;;;1999.90;999.90;;;14.40;92.00;;;;;;6125587;23;20557;-70
2024/04/06 04:17:21;;;;;;;1999.90;999.90;;;14.40;92.00;;;;;;6124797;23;20178;-71
2024/04/06 04:19:47;;;;;;;1999.90;999.90;;;14.40;91.90;;;;;;6125304;23;20182;-70
2024/04/06 04:22:12;;;;;;;1999.90;999.90;;;14.40;91.90;;;;;;6099613;23;20168;-71
2024/04/06 04:24:38;;;;;;;1999.90;999.90;;;14.40;91.90;;;;;;6099625;23;20186;-70
2024/04/06 04:27:04;;;;;;;1999.90;999.90;;;14.30;92.00;;;;;;6124343;23;20455;-71
2024/04/06 04:29:29;;;;;;;1999.90;999.90;;;14.30;91.90;;;;;;6099152;23;20159;-71
2024/04/06 04:31:55;;;;;;;1999.90;999.90;;;14.30;91.80;;;;;;6099367;23;20163;-71
2024/04/06 04:34:21;;;;;;;1999.90;999.90;;;14.30;91.80;;;;;;6099181;23;20163;-71
2024/04/06 04:36:46;;;;;;;1999.90;999.90;;;14.30;91.80;;;;;;6124364;23;20155;-70
2024/04/06 04:39:12;;;;;;;1999.90;999.90;;;14.20;91.70;;;;;;6125304;23;20164;-71
2024/04/06 04:41:38;;;;;;;1999.90;999.90;;;14.20;91.70;;;;;;6125343;23;20222;-71
2024/04/06 04:44:04;;;;;;;1999.90;999.90;;;14.10;91.70;;;;;;6125182;23;20698;-70
2024/04/06 04:46:29;;;;;;;1999.90;999.90;;;14.10;91.70;;;;;;6124090;23;20195;-70
2024/04/06 04:48:59;;;;;;;1999.90;999.90;;;14.10;91.70;;;;;;6125228;23;20151;-71
2024/04/06 04:51:26;;;;;;;1999.90;999.90;;;14.00;91.70;;;;;;6125139;23;20175;-70
2024/04/06 04:53:55;;;;;;;1999.90;999.90;;;14.00;91.70;;;;;;6125223;23;20202;-71
2024/04/06 04:56:20;;;;;;;1999.90;999.90;;;14.00;91.70;;;;;;6124075;23;20214;-70
2024/04/06 04:58:47;;;;;;;1999.90;999.90;;;14.00;91.70;;;;;;6125108;23;20163;-70
2024/04/06 05:01:13;;;;;;;1999.90;999.90;;;14.00;91.70;;;;;;6125013;23;20175;-70
2024/04/06 05:03:39;;;;;;;1999.90;999.90;;;14.00;91.70;;;;;;6124908;23;20179;-70
2024/04/06 05:06:05;;;;;;;1999.90;999.90;;;14.00;91.60;;;;;;6123753;23;20459;-71
2024/04/06 05:08:31;;;;;;;1999.90;999.90;;;14.00;91.60;;;;;;6125102;23;20147;-71
2024/04/06 05:10:57;;;;;;;1999.90;999.90;;;14.10;91.60;;;;;;6124786;23;20197;-72
2024/04/06 05:13:22;;;;;;;1999.90;999.90;;;14.10;91.50;;;;;;6125287;23;20226;-70
2024/04/06 05:15:49;;;;;;;1999.90;999.90;;;14.10;91.40;;;;;;6098705;23;20155;-70
2024/04/06 05:18:15;;;;;;;1999.90;999.90;;;14.10;91.40;;;;;;6124080;23;20517;-70
2024/04/06 05:20:58;;;;;;;1999.90;999.90;;;14.10;91.70;;;;;;6124821;23;20316;-70
2024/04/06 05:23:26;;;;;;;1999.90;999.90;;;14.10;91.30;;;;;;6124949;23;20131;-71
2024/04/06 05:25:51;;;;;;;1999.90;999.90;;;14.10;91.30;;;;;;6124676;23;20152;-70
2024/04/06 05:28:22;;;;;;;1999.90;999.90;;;14.10;91.30;;;;;;6097870;23;20151;-71
2024/04/06 05:30:48;;;;;;;1999.90;999.90;;;14.20;91.30;;;;;;6124439;23;20167;-71
2024/04/06 05:33:16;;;;;;;1999.90;999.90;;;14.30;91.30;;;;;;6124558;23;20166;-70
2024/04/06 05:35:42;;;;;;;1999.90;999.90;;;14.40;91.20;;;;;;6124468;23;20243;-72
2024/04/06 05:38:08;;;;;;;1999.90;999.90;;;14.40;91.10;;;;;;6124038;23;20154;-71
2024/04/06 05:40:41;;;;;;;1999.90;999.90;;;14.50;91.10;;;;;;6124790;23;20262;-70
2024/04/06 05:43:07;;;;;;;1999.90;999.90;;;14.60;91.00;;;;;;6124906;23;20604;-71
2024/04/06 05:45:33;;;;;;;1999.90;999.90;;;14.70;90.90;;;;;;6124637;23;20242;-70
2024/04/06 05:48:03;;;;;;;1999.90;999.90;;;14.70;90.80;;;;;;6097798;23;20155;-70
2024/04/06 05:50:34;;;;;;;1999.90;999.90;;;14.80;90.90;;;;;;6124651;23;20554;-70
2024/04/06 05:53:00;;;;;;;1999.90;999.90;;;14.80;90.70;;;;;;6124705;23;20154;-71
2024/04/06 05:55:26;;;;;;;1999.90;999.90;;;14.90;90.70;;;;;;6124654;23;20171;-71
2024/04/06 05:57:52;;;;;;;1999.90;999.90;;;14.90;90.60;;;;;;6123869;23;20155;-71
2024/04/06 06:00:18;;;;;;;1999.90;999.90;;;15.00;90.50;;;;;;6124464;23;20176;-70
2024/04/06 06:02:44;;;;;;;1999.90;999.90;;;15.00;90.40;;;;;;6124973;23;20155;-71
2024/04/06 06:05:10;;;;;;;1999.90;999.90;;;15.20;90.40;;;;;;6124385;23;20179;-70
2024/04/06 06:07:36;;;;;;;1999.90;999.90;;;15.20;90.30;;;;;;6097808;23;20706;-70
2024/04/06 06:10:03;;;;;;;1999.90;999.90;;;15.40;90.30;;;;;;6124291;23;20215;-71
2024/04/06 06:12:29;;;;;;;1999.90;999.90;;;15.50;90.20;;;;;;6124598;23;20138;-71
2024/04/06 06:14:55;;;;;;;1999.90;999.90;;;15.70;90.00;;;;;;6124491;23;20156;-71
2024/04/06 06:17:20;;;;;;;1999.90;999.90;;;15.80;90.00;;;;;;6123651;23;20241;-70
2024/04/06 06:19:46;;;;;;;1999.90;999.90;;;15.90;89.80;;;;;;6124444;23;20161;-70
2024/04/06 06:22:12;;;;;;;1999.90;999.90;;;16.00;89.50;;;;;;6098631;23;20156;-71
2024/04/06 06:24:38;;;;;;;1999.90;999.90;;;16.00;89.30;;;;;;6124474;23;20188;-71
2024/04/06 06:27:05;;;;;;;1999.90;999.90;;;16.00;89.20;;;;;;6123466;23;20149;-70
2024/04/06 06:29:32;;;;;;;1999.90;999.90;;;16.10;89.00;;;;;;6124251;23;20586;-72
2024/04/06 06:31:57;;;;;;;1999.90;999.90;;;16.10;88.80;;;;;;6124422;23;20213;-71
2024/04/06 06:34:23;;;;;;;1999.90;999.90;;;16.20;88.50;;;;;;6098776;23;20169;-70
2024/04/06 06:36:49;;;;;;;1999.90;999.90;;;16.20;88.50;;;;;;6123294;23;20233;-71
2024/04/06 06:39:15;;;;;;;1999.90;999.90;;;16.20;88.20;;;;;;6124430;23;20635;-70
2024/04/06 06:41:40;;;;;;;1999.90;999.90;;;16.20;88.10;;;;;;6124393;23;20184;-71
2024/04/06 06:44:06;;;;;;;1999.90;999.90;;;16.40;88.10;;;;;;6124254;23;20196;-71
2024/04/06 06:46:32;;;;;;;1999.90;999.90;;;16.60;88.00;;;;;;6124771;23;20157;-72
2024/04/06 06:48:57;;;;;;;1999.90;999.90;;;16.90;87.80;;;;;;6126462;23;20160;-71
2024/04/06 06:51:24;;;;;;;1999.90;999.90;;;17.10;87.20;;;;;;6126028;23;20808;-71
2024/04/06 06:53:49;;;;;;;1999.90;999.90;;;17.30;86.50;;;;;;6126570;23;20155;-71
2024/04/06 06:56:15;;;;;;;1999.90;999.90;;;17.60;86.40;;;;;;6124957;23;20166;-71
2024/04/06 06:58:40;;;;;;;1999.90;999.90;;;17.80;85.70;;;;;;6126185;23;20157;-71
2024/04/06 07:01:06;;;;;;;1999.90;999.90;;;18.10;85.10;;;;;;6126201;23;20186;-71
2024/04/06 07:03:32;;;;;;;1999.90;999.90;;;18.30;84.90;;;;;;6126145;23;20162;-71
2024/04/06 07:05:57;;;;;;;1999.90;999.90;;;18.60;84.30;;;;;;6125750;23;20158;-72
2024/04/06 07:08:23;;;;;;;1999.90;999.90;;;18.80;83.20;;;;;;6125685;23;20146;-72
2024/04/06 07:10:49;;;;;;;1999.90;999.90;;;19.00;82.60;;;;;;6094988;23;20674;-72
2024/04/06 07:13:14;;;;;;;1999.90;999.90;;;19.20;82.10;;;;;;6095400;23;20170;-72
2024/04/06 07:15:40;;;;;;;1999.90;999.90;;;19.40;81.50;;;;;;6095184;23;20163;-71
2024/04/06 07:18:06;;;;;;;1999.90;999.90;;;19.50;80.80;;;;;;6096064;23;20191;-72
2024/04/06 07:20:31;;;;;;;1999.90;999.90;;;19.60;80.10;;;;;;6096689;23;20659;-71
2024/04/06 07:22:57;;;;;;;1999.90;999.90;;;19.80;79.30;;;;;;6096753;23;20147;-72
2024/04/06 07:25:23;;;;;;;1999.90;999.90;;;20.00;78.80;;;;;;6096622;23;20258;-72
2024/04/06 07:27:48;;;;;;;1999.90;999.90;;;20.20;78.40;;;;;;6095630;23;20220;-72
2024/04/06 07:30:14;;;;;;;1999.90;999.90;;;20.50;77.80;;;;;;6094751;23;20187;-72
2024/04/06 07:32:40;;;;;;;1999.90;999.90;;;20.70;77.20;;;;;;6096563;23;20148;-72
2024/04/06 07:35:09;;;;;;;1999.90;999.90;;;21.00;76.80;;;;;;6094847;23;20241;-73
2024/04/06 07:37:35;;;;;;;1999.90;999.90;;;21.20;76.00;;;;;;6095771;23;20164;-72
2024/04/06 07:40:02;;;;;;;1999.90;999.90;;;21.50;75.40;;;;;;6096409;23;20205;-72
2024/04/06 07:42:28;;;;;;;1999.90;999.90;;;21.70;74.80;;;;;;6095023;23;20556;-73
2024/04/06 07:44:54;;;;;;;1999.90;999.90;;;21.90;74.00;;;;;;6096355;23;20238;-73
2024/04/06 07:47:19;;;;;;;1999.90;999.90;;;22.10;73.20;;;;;;6095545;23;20673;-73
2024/04/06 07:49:45;;;;;;;1999.90;999.90;;;22.30;72.70;;;;;;6096759;23;20228;-73
2024/04/06 07:52:10;;;;;;;1999.90;999.90;;;22.50;71.50;;;;;;6096451;23;20182;-73
2024/04/06 07:54:36;;;;;;;1999.90;999.90;;;22.60;70.60;;;;;;6096544;23;20195;-72
2024/04/06 07:57:03;;;;;;;1999.90;999.90;;;22.70;70.00;;;;;;6095461;23;20558;-73
2024/04/06 07:59:29;;;;;;;1999.90;999.90;;;22.90;69.20;;;;;;6096473;23;20163;-73
2024/04/06 08:01:55;;;;;;;1999.90;999.90;;;23.10;68.70;;;;;;6096440;23;20156;-73
2024/04/06 08:04:20;;;;;;;1999.90;999.90;;;23.30;68.30;;;;;;6096252;23;20238;-73
2024/04/06 08:06:46;;;;;;;1999.90;999.90;;;23.50;67.50;;;;;;6095485;23;20152;-72
2024/04/06 08:09:11;;;;;;;1999.90;999.90;;;23.60;66.90;;;;;;6096449;23;20148;-73
2024/04/06 08:11:37;;;;;;;1999.90;999.90;;;23.80;66.40;;;;;;6128479;23;20221;-73
2024/04/06 08:14:03;;;;;;;1999.90;999.90;;;23.90;66.00;;;;;;6127929;23;20158;-72
2024/04/06 08:16:28;;;;;;;1999.90;999.90;;;24.10;65.30;;;;;;6153572;23;20158;-73
2024/04/06 08:18:54;;;;;;;1999.90;999.90;;;24.30;65.80;;;;;;6128692;23;20624;-73
2024/04/06 08:21:20;;;;;;;1999.90;999.90;;;24.50;64.70;;;;;;6128734;23;20582;-73
2024/04/06 08:23:45;;;;;;;1999.90;999.90;;;24.70;64.00;;;;;;6154912;23;20492;-73
2024/04/06 08:26:11;;;;;;;1999.90;999.90;;;24.70;63.20;;;;;;6153903;23;20481;-73
2024/04/06 08:28:36;;;;;;;1999.90;999.90;;;24.80;62.40;;;;;;6155035;23;20146;-73
2024/04/06 08:31:03;;;;;;;1999.90;999.90;;;24.90;62.00;;;;;;6154853;23;20150;-73
2024/04/06 08:33:29;;;;;;;1999.90;999.90;;;25.00;61.40;;;;;;6154942;23;20521;-74
2024/04/06 08:36:01;;;;;;;1999.90;999.90;;;25.10;61.10;;;;;;6154694;23;20146;-73
2024/04/06 08:38:26;;;;;;;1999.90;999.90;;;25.10;60.30;;;;;;6154791;23;20489;-73
2024/04/06 08:40:52;;;;;;;1999.90;999.90;;;25.20;59.90;;;;;;6154758;23;20154;-73
2024/04/06 08:43:19;;;;;;;1999.90;999.90;;;25.40;59.90;;;;;;6154842;23;20579;-73
2024/04/06 08:45:45;;;;;;;1999.90;999.90;;;25.70;59.80;;;;;;6154720;23;20166;-73
2024/04/06 08:48:14;;;;;;;1999.90;999.90;;;25.90;58.90;;;;;;6153972;23;20178;-73
2024/04/06 08:50:42;;;;;;;1999.90;999.90;;;25.90;58.60;;;;;;6154860;23;20625;-73
2024/04/06 08:53:07;;;;;;;1999.90;999.90;;;26.00;58.20;;;;;;6154819;23;20173;-73
2024/04/06 08:55:33;;;;;;;1999.90;999.90;;;26.20;57.60;;;;;;6154505;23;20151;-73
2024/04/06 08:58:00;;;;;;;1999.90;999.90;;;26.20;56.80;;;;;;6153563;23;20166;-73
2024/04/06 09:00:27;;;;;;;1999.90;999.90;;;26.20;56.80;;;;;;6128590;23;20177;-73
2024/04/06 09:02:53;;;;;;;1999.90;999.90;;;26.30;56.20;;;;;;6154716;23;20182;-73
2024/04/06 09:05:19;;;;;;;1999.90;999.90;;;26.40;56.20;;;;;;6154517;23;20181;-74
2024/04/06 09:07:52;;;;;;;1999.90;999.90;;;26.70;56.00;;;;;;6153505;23;20148;-73
2024/04/06 09:10:17;;;;;;;1999.90;999.90;;;26.90;55.20;;;;;;6154387;23;20158;-73
2024/04/06 09:12:43;;;;;;;1999.90;999.90;;;27.10;55.00;;;;;;6154438;23;20182;-73
2024/04/06 09:15:14;;;;;;;1999.90;999.90;;;27.30;54.30;;;;;;6128166;23;20167;-75
2024/04/06 09:17:42;;;;;;;1999.90;999.90;;;27.40;53.90;;;;;;6153854;23;20139;-73
2024/04/06 09:20:08;;;;;;;1999.90;999.90;;;27.50;53.90;;;;;;6154520;23;20184;-74
2024/04/06 09:22:34;;;;;;;1999.90;999.90;;;27.50;53.70;;;;;;6154637;23;20487;-74
2024/04/06 09:25:07;;;;;;;1999.90;999.90;;;27.40;52.90;;;;;;6154133;23;20174;-73
2024/04/06 09:27:33;;;;;;;1999.90;999.90;;;27.20;53.10;;;;;;6153596;23;20575;-74
2024/04/06 09:29:58;;;;;;;1999.90;999.90;;;27.10;53.80;;;;;;6154566;23;20150;-74
2024/04/06 09:32:29;;;;;;;1999.90;999.90;;;26.90;54.00;;;;;;6128403;23;20693;-74
2024/04/06 09:34:55;;;;;;;1999.90;999.90;;;27.10;53.90;;;;;;6128323;23;20146;-74
2024/04/06 09:37:27;;;;;;;1999.90;999.90;;;27.40;53.90;;;;;;6153526;23;20165;-74
2024/04/06 09:39:55;;;;;;;1999.90;999.90;;;28.00;53.00;;;;;;6128215;23;20151;-74
2024/04/06 09:42:22;;;;;;;1999.90;999.90;;;28.20;52.30;;;;;;6128302;23;20178;-73
2024/04/06 09:44:49;;;;;;;1999.90;999.90;;;28.00;52.10;;;;;;6154205;23;20186;-74
2024/04/06 09:47:20;;;;;;;1999.90;999.90;;;27.80;52.20;;;;;;6124765;23;20170;-74
2024/04/06 09:49:48;;;;;;;1999.90;999.90;;;27.50;52.10;;;;;;6154191;23;20139;-74
2024/04/06 09:52:14;;;;;;;1999.90;999.90;;;27.40;52.70;;;;;;6153755;23;20221;-74
2024/04/06 09:54:40;;;;;;;1999.90;999.90;;;27.50;52.10;;;;;;6154457;23;20146;-74
2024/04/06 09:57:06;;;;;;;1999.90;999.90;;;27.40;51.50;;;;;;6153182;23;20153;-74
2024/04/06 09:59:32;;;;;;;1999.90;999.90;;;27.40;51.50;;;;;;6154234;23;20228;-74
2024/04/06 10:01:58;;;;;;;1999.90;999.90;;;27.30;51.20;;;;;;6154208;23;20240;-73
2024/04/06 10:04:24;;;;;;;1999.90;999.90;;;27.20;50.80;;;;;;6128127;23;20182;-74
2024/04/06 10:06:54;;;;;;;1999.90;999.90;;;27.20;50.80;;;;;;6153668;23;20657;-74
2024/04/06 10:09:20;;;;;;;1999.90;999.90;;;27.30;51.00;;;;;;6154260;23;20154;-73
2024/04/06 10:11:45;;;;;;;1999.90;999.90;;;27.40;50.50;;;;;;6154106;23;20181;-74
2024/04/06 10:14:11;;;;;;;1999.90;999.90;;;27.80;51.70;;;;;;6154122;23;20154;-73
2024/04/06 10:16:41;;;;;;;1999.90;999.90;;;28.30;51.00;;;;;;6127194;23;20189;-73
2024/04/06 10:19:11;;;;;;;1999.90;999.90;;;28.80;50.60;;;;;;6154488;23;20158;-73
2024/04/06 10:21:45;;;;;;;1999.90;999.90;;;29.20;50.00;;;;;;6130033;23;20193;-74
2024/04/06 10:24:16;;;;;;;1999.90;999.90;;;29.40;49.70;;;;;;6156462;23;20176;-74
2024/04/06 10:26:46;;;;;;;1999.90;999.90;;;29.60;48.30;;;;;;6155377;23;20134;-74
2024/04/06 10:29:15;;;;;;;1999.90;999.90;;;29.70;47.80;;;;;;6156494;23;20158;-73
2024/04/06 10:31:42;;;;;;;1999.90;999.90;;;29.90;47.30;;;;;;6129990;23;20186;-74
2024/04/06 10:34:08;;;;;;;1999.90;999.90;;;30.30;47.20;;;;;;6130043;23;20158;-74
2024/04/06 10:36:34;;;;;;;1999.90;999.90;;;30.50;46.20;;;;;;6155282;23;20186;-74
2024/04/06 10:39:04;;;;;;;1999.90;999.90;;;30.70;46.10;;;;;;6156265;23;20184;-74
2024/04/06 10:41:31;;;;;;;1999.90;999.90;;;31.00;45.20;;;;;;6129623;23;20182;-74
2024/04/06 10:43:58;;;;;;;1999.90;999.90;;;31.20;45.00;;;;;;6156193;23;20206;-74
2024/04/06 10:46:25;;;;;;;1999.90;999.90;;;31.40;44.30;;;;;;6127431;23;20155;-74
2024/04/06 10:48:50;;;;;;;1999.90;999.90;;;31.50;44.20;;;;;;6153108;23;20152;-74
2024/04/06 10:51:16;;;;;;;1999.90;999.90;;;31.50;43.60;;;;;;6154728;23;20265;-75
2024/04/06 10:53:43;;;;;;;1999.90;999.90;;;31.60;43.90;;;;;;6154839;23;20147;-74
2024/04/06 10:56:09;;;;;;;1999.90;999.90;;;32.00;43.80;;;;;;6128281;23;20606;-74
2024/04/06 10:58:35;;;;;;;1999.90;999.90;;;32.30;43.30;;;;;;6155689;23;20162;-74
2024/04/06 11:01:34;;;;;;;1999.90;999.90;;;32.50;42.40;;;;;;6155682;23;20238;-74
2024/04/06 11:04:01;;;;;;;1999.90;999.90;;;32.90;41.90;;;;;;6155262;23;20661;-74
2024/04/06 11:06:27;;;;;;;1999.90;999.90;;;33.20;40.80;;;;;;6128934;23;20233;-74
2024/04/06 11:08:55;;;;;;;1999.90;999.90;;;33.20;40.50;;;;;;6156300;23;20595;-74
2024/04/06 11:11:21;;;;;;;1999.90;999.90;;;33.10;40.40;;;;;;6155907;23;20182;-74
2024/04/06 11:13:46;;;;;;;1999.90;999.90;;;33.10;40.90;;;;;;6155818;23;20281;-75
2024/04/06 11:16:12;;;;;;;1999.90;999.90;;;33.20;40.50;;;;;;6154994;23;20158;-74
2024/04/06 11:18:42;;;;;;;1999.90;999.90;;;33.50;40.00;;;;;;6129774;23;20178;-74
2024/04/06 11:21:11;;;;;;;1999.90;999.90;;;33.80;40.00;;;;;;6156243;23;20154;-74
2024/04/06 11:23:43;;;;;;;1999.90;999.90;;;33.80;38.60;;;;;;6155663;23;20202;-74
2024/04/06 11:26:09;;;;;;;1999.90;999.90;;;33.80;37.80;;;;;;6154981;23;20151;-74
2024/04/06 11:28:35;;;;;;;1999.90;999.90;;;33.60;38.00;;;;;;6155718;23;20157;-74
2024/04/06 11:31:01;;;;;;;1999.90;999.90;;;33.40;38.00;;;;;;6155433;23;20214;-74
2024/04/06 11:33:27;;;;;;;1999.90;999.90;;;33.50;38.20;;;;;;6155904;23;20654;-74
2024/04/06 11:35:53;;;;;;;1999.90;999.90;;;33.60;38.50;;;;;;6129427;23;20205;-74
2024/04/06 11:38:19;;;;;;;1999.90;999.90;;;33.90;38.70;;;;;;6154874;23;20155;-74
2024/04/06 11:40:52;;;;;;;1999.90;999.90;;;33.90;37.30;;;;;;6155748;23;20154;-74
2024/04/06 11:43:18;;;;;;;1999.90;999.90;;;33.80;37.50;;;;;;6155558;23;20150;-74
2024/04/06 11:45:45;;;;;;;1999.90;999.90;;;33.80;37.40;;;;;;6155390;23;20182;-74
2024/04/06 11:48:12;;;;;;;1999.90;999.90;;;34.10;37.70;;;;;;6128649;23;20178;-74
2024/04/06 11:50:37;;;;;;;1999.90;999.90;;;34.40;36.80;;;;;;6155705;23;20150;-73
2024/04/06 11:53:03;;;;;;;1999.90;999.90;;;34.30;36.60;;;;;;6155429;23;20795;-74
2024/04/06 11:55:29;;;;;;;1999.90;999.90;;;34.10;36.40;;;;;;6155453;23;20579;-74